sensor_id;sensor_type;location;lat;lon;timestamp;noise_LAeq;noise_LA_min;noise_LA_max;noise_LA01;noise_LA95
66274;Laerm;58450;52.150;4.466;2023-07-13T00:02:26;41.41;35.74;49.22;;
66274;Laerm;58450;52.150;4.466;2023-07-13T00:04:56;42.21;34.92;50.42;;
66274;Laerm;58450;52.150;4.466;2023-07-13T00:07:23;42.45;37.24;49.75;;
66274;Laerm;58450;52.150;4.466;2023-07-13T00:09:52;40.74;35.44;48.34;;
66274;Laerm;58450;52.150;4.466;2023-07-13T00:12:25;51.57;35.62;71.19;;
66274;Laerm;58450;52.150;4.466;2023-07-13T00:14:56;40.64;35.24;50.03;;
66274;Laerm;58450;52.150;4.466;2023-07-13T00:17:24;41.19;35.93;48.95;;
66274;Laerm;58450;52.150;4.466;2023-07-13T00:19:54;39.53;34.15;53.66;;
66274;Laerm;58450;52.150;4.466;2023-07-13T00:22:24;40.39;34.48;54.16;;
66274;Laerm;58450;52.150;4.466;2023-07-13T00:24:54;48.54;34.50;71.87;;
66274;Laerm;58450;52.150;4.466;2023-07-13T00:27:23;46.46;34.85;67.01;;
66274;Laerm;58450;52.150;4.466;2023-07-13T00:29:53;41.16;34.91;52.32;;
66274;Laerm;58450;52.150;4.466;2023-07-13T00:32:20;45.15;35.59;64.80;;
66274;Laerm;58450;52.150;4.466;2023-07-13T00:34:48;40.31;34.43;51.71;;
66274;Laerm;58450;52.150;4.466;2023-07-13T00:37:16;40.02;33.94;48.30;;
66274;Laerm;58450;52.150;4.466;2023-07-13T00:39:45;41.64;34.89;56.92;;
66274;Laerm;58450;52.150;4.466;2023-07-13T00:42:13;43.19;36.52;57.71;;
66274;Laerm;58450;52.150;4.466;2023-07-13T00:44:41;41.99;36.97;50.68;;
66274;Laerm;58450;52.150;4.466;2023-07-13T00:47:09;42.27;36.59;54.88;;
66274;Laerm;58450;52.150;4.466;2023-07-13T00:49:37;43.04;35.26;55.25;;
66274;Laerm;58450;52.150;4.466;2023-07-13T00:52:07;40.83;34.26;53.36;;
66274;Laerm;58450;52.150;4.466;2023-07-13T00:54:41;40.97;35.33;49.31;;
66274;Laerm;58450;52.150;4.466;2023-07-13T00:57:17;40.95;35.38;58.38;;
66274;Laerm;58450;52.150;4.466;2023-07-13T00:59:54;41.03;35.11;56.85;;
66274;Laerm;58450;52.150;4.466;2023-07-13T01:02:24;40.40;34.54;48.91;;
66274;Laerm;58450;52.150;4.466;2023-07-13T01:04:52;40.50;34.65;50.14;;
66274;Laerm;58450;52.150;4.466;2023-07-13T01:07:20;39.54;33.89;57.49;;
66274;Laerm;58450;52.150;4.466;2023-07-13T01:09:48;40.00;34.98;48.03;;
66274;Laerm;58450;52.150;4.466;2023-07-13T01:12:17;40.16;33.35;48.59;;
66274;Laerm;58450;52.150;4.466;2023-07-13T01:14:45;40.80;34.93;61.83;;
66274;Laerm;58450;52.150;4.466;2023-07-13T01:17:20;38.99;33.41;48.26;;
66274;Laerm;58450;52.150;4.466;2023-07-13T01:19:48;40.39;34.23;50.64;;
66274;Laerm;58450;52.150;4.466;2023-07-13T01:22:19;40.08;34.21;60.41;;
66274;Laerm;58450;52.150;4.466;2023-07-13T01:24:52;40.21;34.97;48.29;;
66274;Laerm;58450;52.150;4.466;2023-07-13T01:27:23;43.00;33.41;57.40;;
66274;Laerm;58450;52.150;4.466;2023-07-13T01:29:53;45.12;34.37;76.17;;
66274;Laerm;58450;52.150;4.466;2023-07-13T01:32:28;45.45;35.89;66.31;;
66274;Laerm;58450;52.150;4.466;2023-07-13T01:34:57;40.87;35.68;60.90;;
66274;Laerm;58450;52.150;4.466;2023-07-13T01:37:26;40.99;35.56;60.60;;
66274;Laerm;58450;52.150;4.466;2023-07-13T01:40:02;41.23;34.22;52.14;;
66274;Laerm;58450;52.150;4.466;2023-07-13T01:42:30;40.80;34.92;48.81;;
66274;Laerm;58450;52.150;4.466;2023-07-13T01:44:58;42.58;36.43;55.08;;
66274;Laerm;58450;52.150;4.466;2023-07-13T01:47:26;40.42;34.39;55.39;;
66274;Laerm;58450;52.150;4.466;2023-07-13T01:49:55;40.14;34.34;47.94;;
66274;Laerm;58450;52.150;4.466;2023-07-13T01:52:23;40.70;34.11;49.15;;
66274;Laerm;58450;52.150;4.466;2023-07-13T01:54:52;41.01;33.90;60.21;;
66274;Laerm;58450;52.150;4.466;2023-07-13T01:57:20;39.58;33.54;50.96;;
66274;Laerm;58450;52.150;4.466;2023-07-13T01:59:48;39.45;33.08;48.36;;
66274;Laerm;58450;52.150;4.466;2023-07-13T02:02:15;40.53;34.13;53.14;;
66274;Laerm;58450;52.150;4.466;2023-07-13T02:04:43;43.06;33.19;64.95;;
66274;Laerm;58450;52.150;4.466;2023-07-13T02:07:11;39.36;32.11;48.51;;
66274;Laerm;58450;52.150;4.466;2023-07-13T02:09:39;39.70;34.83;48.57;;
66274;Laerm;58450;52.150;4.466;2023-07-13T02:12:09;40.17;34.05;58.08;;
66274;Laerm;58450;52.150;4.466;2023-07-13T02:14:36;40.33;34.03;56.04;;
66274;Laerm;58450;52.150;4.466;2023-07-13T02:17:05;39.88;33.93;47.93;;
66274;Laerm;58450;52.150;4.466;2023-07-13T02:19:32;39.47;33.81;49.46;;
66274;Laerm;58450;52.150;4.466;2023-07-13T02:22:00;41.25;34.29;59.65;;
66274;Laerm;58450;52.150;4.466;2023-07-13T02:24:28;40.42;33.82;57.34;;
66274;Laerm;58450;52.150;4.466;2023-07-13T02:26:56;43.20;32.84;60.18;;
66274;Laerm;58450;52.150;4.466;2023-07-13T02:29:25;44.00;34.96;53.11;;
66274;Laerm;58450;52.150;4.466;2023-07-13T02:31:53;44.09;34.18;62.12;;
66274;Laerm;58450;52.150;4.466;2023-07-13T02:34:20;38.90;33.56;47.63;;
66274;Laerm;58450;52.150;4.466;2023-07-13T02:36:48;39.77;33.14;51.04;;
66274;Laerm;58450;52.150;4.466;2023-07-13T02:39:16;41.37;34.28;57.73;;
66274;Laerm;58450;52.150;4.466;2023-07-13T02:41:44;42.46;34.04;63.44;;
66274;Laerm;58450;52.150;4.466;2023-07-13T02:44:12;40.88;33.77;65.27;;
66274;Laerm;58450;52.150;4.466;2023-07-13T02:46:42;41.31;34.32;58.97;;
66274;Laerm;58450;52.150;4.466;2023-07-13T02:49:10;40.71;34.44;58.51;;
66274;Laerm;58450;52.150;4.466;2023-07-13T02:51:37;40.79;34.98;58.68;;
66274;Laerm;58450;52.150;4.466;2023-07-13T02:54:05;42.30;34.50;63.17;;
66274;Laerm;58450;52.150;4.466;2023-07-13T02:56:34;39.56;34.17;57.35;;
66274;Laerm;58450;52.150;4.466;2023-07-13T02:59:05;40.68;34.12;59.88;;
66274;Laerm;58450;52.150;4.466;2023-07-13T03:01:33;50.28;34.10;70.71;;
66274;Laerm;58450;52.150;4.466;2023-07-13T03:04:03;43.12;34.93;58.63;;
66274;Laerm;58450;52.150;4.466;2023-07-13T03:06:32;41.66;35.03;54.08;;
66274;Laerm;58450;52.150;4.466;2023-07-13T03:09:00;43.73;35.88;65.26;;
66274;Laerm;58450;52.150;4.466;2023-07-13T03:11:28;41.46;35.63;54.61;;
66274;Laerm;58450;52.150;4.466;2023-07-13T03:13:57;44.74;35.76;60.74;;
66274;Laerm;58450;52.150;4.466;2023-07-13T03:16:25;42.59;35.64;53.55;;
66274;Laerm;58450;52.150;4.466;2023-07-13T03:18:52;42.40;35.55;57.46;;
66274;Laerm;58450;52.150;4.466;2023-07-13T03:21:22;43.77;36.03;60.00;;
66274;Laerm;58450;52.150;4.466;2023-07-13T03:23:49;42.37;35.95;54.75;;
66274;Laerm;58450;52.150;4.466;2023-07-13T03:26:20;45.79;36.76;59.47;;
66274;Laerm;58450;52.150;4.466;2023-07-13T03:28:48;44.59;35.47;61.48;;
66274;Laerm;58450;52.150;4.466;2023-07-13T03:31:18;46.79;35.98;65.61;;
66274;Laerm;58450;52.150;4.466;2023-07-13T03:33:47;42.06;36.33;56.91;;
66274;Laerm;58450;52.150;4.466;2023-07-13T03:36:19;49.40;37.74;65.21;;
66274;Laerm;58450;52.150;4.466;2023-07-13T03:38:50;45.57;37.54;59.62;;
66274;Laerm;58450;52.150;4.466;2023-07-13T03:41:20;44.83;37.04;60.71;;
66274;Laerm;58450;52.150;4.466;2023-07-13T03:43:48;46.30;36.73;60.75;;
66274;Laerm;58450;52.150;4.466;2023-07-13T03:46:16;45.30;37.76;57.95;;
66274;Laerm;58450;52.150;4.466;2023-07-13T03:48:47;44.38;37.45;59.68;;
66274;Laerm;58450;52.150;4.466;2023-07-13T03:51:17;43.64;37.45;60.52;;
66274;Laerm;58450;52.150;4.466;2023-07-13T03:53:48;47.93;38.86;60.86;;
66274;Laerm;58450;52.150;4.466;2023-07-13T03:56:17;46.83;37.31;60.84;;
66274;Laerm;58450;52.150;4.466;2023-07-13T03:58:47;45.96;38.55;58.03;;
66274;Laerm;58450;52.150;4.466;2023-07-13T04:01:18;48.33;36.90;61.57;;
66274;Laerm;58450;52.150;4.466;2023-07-13T04:03:47;46.97;38.21;74.71;;
66274;Laerm;58450;52.150;4.466;2023-07-13T04:06:18;43.91;37.98;53.63;;
66274;Laerm;58450;52.150;4.466;2023-07-13T04:08:51;45.23;38.32;58.11;;
66274;Laerm;58450;52.150;4.466;2023-07-13T04:11:22;43.74;37.05;55.47;;
66274;Laerm;58450;52.150;4.466;2023-07-13T04:13:50;50.55;38.41;66.51;;
66274;Laerm;58450;52.150;4.466;2023-07-13T04:16:19;43.80;38.33;51.33;;
66274;Laerm;58450;52.150;4.466;2023-07-13T04:18:48;48.65;39.13;64.52;;
66274;Laerm;58450;52.150;4.466;2023-07-13T04:21:16;43.69;38.99;51.93;;
66274;Laerm;58450;52.150;4.466;2023-07-13T04:23:44;48.19;39.65;63.19;;
66274;Laerm;58450;52.150;4.466;2023-07-13T04:26:13;47.42;39.11;62.90;;
66274;Laerm;58450;52.150;4.466;2023-07-13T04:28:41;47.51;40.34;60.64;;
66274;Laerm;58450;52.150;4.466;2023-07-13T04:31:09;44.42;39.07;53.58;;
66274;Laerm;58450;52.150;4.466;2023-07-13T04:33:37;48.76;39.83;63.68;;
66274;Laerm;58450;52.150;4.466;2023-07-13T04:36:05;45.99;39.96;60.07;;
66274;Laerm;58450;52.150;4.466;2023-07-13T04:38:35;49.05;39.31;68.67;;
66274;Laerm;58450;52.150;4.466;2023-07-13T04:41:07;45.11;40.00;52.20;;
66274;Laerm;58450;52.150;4.466;2023-07-13T04:43:36;48.52;39.76;61.82;;
66274;Laerm;58450;52.150;4.466;2023-07-13T04:46:06;51.27;38.87;68.44;;
66274;Laerm;58450;52.150;4.466;2023-07-13T04:48:34;49.90;39.87;63.10;;
66274;Laerm;58450;52.150;4.466;2023-07-13T04:51:03;48.41;40.67;66.57;;
66274;Laerm;58450;52.150;4.466;2023-07-13T04:53:32;53.56;40.40;66.79;;
66274;Laerm;58450;52.150;4.466;2023-07-13T04:56:01;50.55;40.34;68.54;;
66274;Laerm;58450;52.150;4.466;2023-07-13T04:58:29;46.69;40.59;61.69;;
66274;Laerm;58450;52.150;4.466;2023-07-13T05:01:02;51.11;41.22;67.69;;
66274;Laerm;58450;52.150;4.466;2023-07-13T05:03:31;46.81;40.30;60.37;;
66274;Laerm;58450;52.150;4.466;2023-07-13T05:06:02;48.82;40.61;67.11;;
66274;Laerm;58450;52.150;4.466;2023-07-13T05:08:30;50.64;40.00;66.98;;
66274;Laerm;58450;52.150;4.466;2023-07-13T05:11:00;47.34;40.20;61.57;;
66274;Laerm;58450;52.150;4.466;2023-07-13T05:13:27;52.65;40.41;74.97;;
66274;Laerm;58450;52.150;4.466;2023-07-13T05:15:58;47.27;40.35;68.19;;
66274;Laerm;58450;52.150;4.466;2023-07-13T05:18:27;49.73;40.50;68.08;;
66274;Laerm;58450;52.150;4.466;2023-07-13T05:21:01;46.48;39.60;66.95;;
66274;Laerm;58450;52.150;4.466;2023-07-13T05:23:29;48.76;40.78;62.29;;
66274;Laerm;58450;52.150;4.466;2023-07-13T05:25:58;49.57;41.44;72.75;;
66274;Laerm;58450;52.150;4.466;2023-07-13T05:28:27;50.35;42.79;68.73;;
66274;Laerm;58450;52.150;4.466;2023-07-13T05:30:55;48.55;42.26;64.34;;
66274;Laerm;58450;52.150;4.466;2023-07-13T05:33:23;50.75;42.80;64.39;;
66274;Laerm;58450;52.150;4.466;2023-07-13T05:35:52;49.31;42.63;67.09;;
66274;Laerm;58450;52.150;4.466;2023-07-13T05:38:20;51.47;41.68;68.55;;
66274;Laerm;58450;52.150;4.466;2023-07-13T05:40:49;50.60;43.18;75.01;;
66274;Laerm;58450;52.150;4.466;2023-07-13T05:43:17;54.54;43.79;67.62;;
66274;Laerm;58450;52.150;4.466;2023-07-13T05:45:45;53.48;46.10;72.94;;
66274;Laerm;58450;52.150;4.466;2023-07-13T05:48:13;53.28;43.97;64.00;;
66274;Laerm;58450;52.150;4.466;2023-07-13T05:50:41;49.20;43.41;65.30;;
66274;Laerm;58450;52.150;4.466;2023-07-13T05:53:11;50.88;43.33;66.17;;
66274;Laerm;58450;52.150;4.466;2023-07-13T05:55:41;52.38;43.91;69.25;;
66274;Laerm;58450;52.150;4.466;2023-07-13T05:58:11;53.83;43.72;69.74;;
66274;Laerm;58450;52.150;4.466;2023-07-13T06:00:39;51.46;44.62;68.93;;
66274;Laerm;58450;52.150;4.466;2023-07-13T06:03:07;51.28;43.64;68.09;;
66274;Laerm;58450;52.150;4.466;2023-07-13T06:05:36;50.69;42.67;65.54;;
66274;Laerm;58450;52.150;4.466;2023-07-13T06:08:07;54.76;43.66;67.09;;
66274;Laerm;58450;52.150;4.466;2023-07-13T06:10:37;53.44;45.25;66.53;;
66274;Laerm;58450;52.150;4.466;2023-07-13T06:13:04;53.49;45.45;65.37;;
66274;Laerm;58450;52.150;4.466;2023-07-13T06:15:32;54.85;43.66;71.47;;
66274;Laerm;58450;52.150;4.466;2023-07-13T06:18:00;55.69;43.22;69.89;;
66274;Laerm;58450;52.150;4.466;2023-07-13T06:20:30;51.32;44.43;62.92;;
66274;Laerm;58450;52.150;4.466;2023-07-13T06:22:57;54.45;43.64;74.27;;
66274;Laerm;58450;52.150;4.466;2023-07-13T06:25:26;54.53;44.18;68.48;;
66274;Laerm;58450;52.150;4.466;2023-07-13T06:27:55;54.98;46.12;76.82;;
66274;Laerm;58450;52.150;4.466;2023-07-13T06:30:23;54.41;44.62;72.31;;
66274;Laerm;58450;52.150;4.466;2023-07-13T06:32:51;57.66;43.35;70.15;;
66274;Laerm;58450;52.150;4.466;2023-07-13T06:35:19;52.27;43.23;67.17;;
66274;Laerm;58450;52.150;4.466;2023-07-13T06:37:47;54.09;42.98;71.29;;
66274;Laerm;58450;52.150;4.466;2023-07-13T06:40:15;57.27;46.81;73.77;;
66274;Laerm;58450;52.150;4.466;2023-07-13T06:42:43;55.67;49.08;65.93;;
66274;Laerm;58450;52.150;4.466;2023-07-13T06:45:12;56.01;49.27;67.71;;
66274;Laerm;58450;52.150;4.466;2023-07-13T06:47:40;56.79;49.16;66.99;;
66274;Laerm;58450;52.150;4.466;2023-07-13T06:50:09;55.64;47.51;68.94;;
66274;Laerm;58450;52.150;4.466;2023-07-13T06:52:37;54.69;45.87;63.20;;
66274;Laerm;58450;52.150;4.466;2023-07-13T06:55:06;55.39;46.40;68.14;;
66274;Laerm;58450;52.150;4.466;2023-07-13T06:57:34;53.43;43.25;65.23;;
66274;Laerm;58450;52.150;4.466;2023-07-13T07:00:01;53.46;42.65;63.70;;
66274;Laerm;58450;52.150;4.466;2023-07-13T07:02:30;54.05;43.76;68.08;;
66274;Laerm;58450;52.150;4.466;2023-07-13T07:04:58;54.80;42.79;70.07;;
66274;Laerm;58450;52.150;4.466;2023-07-13T07:07:27;53.58;43.30;65.85;;
66274;Laerm;58450;52.150;4.466;2023-07-13T07:09:54;51.63;43.96;65.48;;
66274;Laerm;58450;52.150;4.466;2023-07-13T07:12:22;51.74;43.13;66.54;;
66274;Laerm;58450;52.150;4.466;2023-07-13T07:14:50;53.94;44.53;70.65;;
66274;Laerm;58450;52.150;4.466;2023-07-13T07:17:18;71.11;45.06;83.91;;
66274;Laerm;58450;52.150;4.466;2023-07-13T07:19:47;67.08;43.31;82.45;;
66274;Laerm;58450;52.150;4.466;2023-07-13T07:22:15;48.99;43.08;63.04;;
66274;Laerm;58450;52.150;4.466;2023-07-13T07:24:42;49.95;42.88;67.89;;
66274;Laerm;58450;52.150;4.466;2023-07-13T07:27:10;51.82;43.43;69.81;;
66274;Laerm;58450;52.150;4.466;2023-07-13T07:29:38;50.94;42.11;66.98;;
66274;Laerm;58450;52.150;4.466;2023-07-13T07:32:07;52.20;42.14;71.61;;
66274;Laerm;58450;52.150;4.466;2023-07-13T07:34:35;51.13;43.67;65.86;;
66274;Laerm;58450;52.150;4.466;2023-07-13T07:37:05;50.86;43.64;67.54;;
66274;Laerm;58450;52.150;4.466;2023-07-13T07:39:32;50.63;41.31;72.03;;
66274;Laerm;58450;52.150;4.466;2023-07-13T07:42:00;50.20;43.62;60.58;;
66274;Laerm;58450;52.150;4.466;2023-07-13T07:44:28;55.91;43.32;67.99;;
66274;Laerm;58450;52.150;4.466;2023-07-13T07:46:56;56.56;44.28;74.92;;
66274;Laerm;58450;52.150;4.466;2023-07-13T07:49:24;60.06;47.18;77.14;;
66274;Laerm;58450;52.150;4.466;2023-07-13T07:51:52;53.76;45.45;73.25;;
66274;Laerm;58450;52.150;4.466;2023-07-13T07:54:21;51.70;44.09;62.22;;
66274;Laerm;58450;52.150;4.466;2023-07-13T07:56:49;54.65;47.18;67.60;;
66274;Laerm;58450;52.150;4.466;2023-07-13T07:59:16;54.65;44.73;71.36;;
66274;Laerm;58450;52.150;4.466;2023-07-13T08:01:44;53.68;48.46;67.99;;
66274;Laerm;58450;52.150;4.466;2023-07-13T08:04:14;54.08;47.39;65.22;;
66274;Laerm;58450;52.150;4.466;2023-07-13T08:06:42;52.90;45.18;64.97;;
66274;Laerm;58450;52.150;4.466;2023-07-13T08:09:09;56.78;47.74;77.68;;
66274;Laerm;58450;52.150;4.466;2023-07-13T08:11:39;55.32;46.74;70.60;;
66274;Laerm;58450;52.150;4.466;2023-07-13T08:14:06;55.79;46.32;74.45;;
66274;Laerm;58450;52.150;4.466;2023-07-13T08:16:35;53.78;45.63;70.02;;
66274;Laerm;58450;52.150;4.466;2023-07-13T08:19:03;56.58;46.56;70.05;;
66274;Laerm;58450;52.150;4.466;2023-07-13T08:21:32;52.53;46.35;72.04;;
66274;Laerm;58450;52.150;4.466;2023-07-13T08:24:00;54.14;47.17;69.41;;
66274;Laerm;58450;52.150;4.466;2023-07-13T08:26:27;55.30;48.72;67.08;;
66274;Laerm;58450;52.150;4.466;2023-07-13T08:28:57;52.95;46.33;66.47;;
66274;Laerm;58450;52.150;4.466;2023-07-13T08:31:24;52.01;45.64;68.49;;
66274;Laerm;58450;52.150;4.466;2023-07-13T08:33:52;51.91;44.61;68.70;;
66274;Laerm;58450;52.150;4.466;2023-07-13T08:36:20;51.15;44.64;63.66;;
66274;Laerm;58450;52.150;4.466;2023-07-13T08:38:47;54.88;46.16;66.13;;
66274;Laerm;58450;52.150;4.466;2023-07-13T08:41:17;54.65;48.74;67.00;;
66274;Laerm;58450;52.150;4.466;2023-07-13T08:43:49;55.19;46.10;69.32;;
66274;Laerm;58450;52.150;4.466;2023-07-13T08:46:26;56.76;47.11;73.26;;
66274;Laerm;58450;52.150;4.466;2023-07-13T08:48:59;55.41;47.22;68.98;;
66274;Laerm;58450;52.150;4.466;2023-07-13T08:51:40;53.39;46.71;64.45;;
66274;Laerm;58450;52.150;4.466;2023-07-13T08:54:20;53.84;47.05;65.69;;
66274;Laerm;58450;52.150;4.466;2023-07-13T08:56:51;53.32;46.71;64.25;;
66274;Laerm;58450;52.150;4.466;2023-07-13T08:59:25;55.20;47.34;73.29;;
66274;Laerm;58450;52.150;4.466;2023-07-13T09:02:18;54.82;47.36;74.05;;
66274;Laerm;58450;52.150;4.466;2023-07-13T09:04:55;53.32;47.26;66.99;;
66274;Laerm;58450;52.150;4.466;2023-07-13T09:07:39;53.20;46.28;67.96;;
66274;Laerm;58450;52.150;4.466;2023-07-13T09:10:15;54.84;46.72;68.86;;
66274;Laerm;58450;52.150;4.466;2023-07-13T09:12:59;54.97;46.48;68.07;;
66274;Laerm;58450;52.150;4.466;2023-07-13T09:15:35;56.04;49.18;66.58;;
66274;Laerm;58450;52.150;4.466;2023-07-13T09:18:11;56.31;47.75;69.86;;
66274;Laerm;58450;52.150;4.466;2023-07-13T09:20:49;54.40;46.80;73.87;;
66274;Laerm;58450;52.150;4.466;2023-07-13T09:23:22;55.02;48.40;66.86;;
66274;Laerm;58450;52.150;4.466;2023-07-13T09:25:58;55.37;45.71;72.76;;
66274;Laerm;58450;52.150;4.466;2023-07-13T09:28:33;56.42;48.62;75.75;;
66274;Laerm;58450;52.150;4.466;2023-07-13T09:31:09;56.05;46.58;75.65;;
66274;Laerm;58450;52.150;4.466;2023-07-13T09:33:41;54.59;45.26;72.41;;
66274;Laerm;58450;52.150;4.466;2023-07-13T09:36:20;55.11;47.30;70.30;;
66274;Laerm;58450;52.150;4.466;2023-07-13T09:39:02;57.30;49.21;72.08;;
66274;Laerm;58450;52.150;4.466;2023-07-13T09:41:41;55.37;47.94;73.93;;
66274;Laerm;58450;52.150;4.466;2023-07-13T09:44:17;58.94;49.04;73.49;;
66274;Laerm;58450;52.150;4.466;2023-07-13T09:46:53;54.01;48.29;75.45;;
66274;Laerm;58450;52.150;4.466;2023-07-13T09:49:26;56.92;48.43;68.92;;
66274;Laerm;58450;52.150;4.466;2023-07-13T09:51:59;54.15;48.87;69.37;;
66274;Laerm;58450;52.150;4.466;2023-07-13T09:54:27;53.54;45.37;65.42;;
66274;Laerm;58450;52.150;4.466;2023-07-13T09:56:56;61.59;51.53;72.61;;
66274;Laerm;58450;52.150;4.466;2023-07-13T09:59:29;57.93;48.72;70.18;;
66274;Laerm;58450;52.150;4.466;2023-07-13T10:01:57;54.13;47.64;66.37;;
66274;Laerm;58450;52.150;4.466;2023-07-13T10:04:34;55.16;47.70;76.33;;
66274;Laerm;58450;52.150;4.466;2023-07-13T10:07:07;60.43;52.50;69.36;;
66274;Laerm;58450;52.150;4.466;2023-07-13T10:09:35;59.27;51.47;68.49;;
66274;Laerm;58450;52.150;4.466;2023-07-13T10:12:13;60.95;55.14;69.79;;
66274;Laerm;58450;52.150;4.466;2023-07-13T10:14:42;62.28;53.80;72.75;;
66274;Laerm;58450;52.150;4.466;2023-07-13T10:17:13;61.46;53.87;70.66;;
66274;Laerm;58450;52.150;4.466;2023-07-13T10:19:43;58.69;49.46;67.43;;
66274;Laerm;58450;52.150;4.466;2023-07-13T10:22:21;56.66;48.26;67.98;;
66274;Laerm;58450;52.150;4.466;2023-07-13T10:24:51;58.23;51.53;71.56;;
66274;Laerm;58450;52.150;4.466;2023-07-13T10:27:24;56.10;48.89;72.15;;
66274;Laerm;58450;52.150;4.466;2023-07-13T10:30:06;58.13;50.18;72.40;;
66274;Laerm;58450;52.150;4.466;2023-07-13T10:32:37;56.42;49.93;70.31;;
66274;Laerm;58450;52.150;4.466;2023-07-13T10:35:12;56.56;49.83;67.52;;
66274;Laerm;58450;52.150;4.466;2023-07-13T10:37:48;56.98;48.60;71.63;;
66274;Laerm;58450;52.150;4.466;2023-07-13T10:40:23;57.71;49.49;75.56;;
66274;Laerm;58450;52.150;4.466;2023-07-13T10:42:57;56.59;46.99;72.60;;
66274;Laerm;58450;52.150;4.466;2023-07-13T10:45:30;52.23;47.36;63.75;;
66274;Laerm;58450;52.150;4.466;2023-07-13T10:48:01;60.15;49.33;71.44;;
66274;Laerm;58450;52.150;4.466;2023-07-13T10:50:32;60.00;48.85;71.91;;
66274;Laerm;58450;52.150;4.466;2023-07-13T10:53:03;61.12;48.79;73.74;;
66274;Laerm;58450;52.150;4.466;2023-07-13T10:55:56;58.73;48.77;72.37;;
66274;Laerm;58450;52.150;4.466;2023-07-13T10:58:32;58.90;48.99;72.29;;
66274;Laerm;58450;52.150;4.466;2023-07-13T11:01:09;61.07;47.65;72.88;;
66274;Laerm;58450;52.150;4.466;2023-07-13T11:03:48;62.44;47.56;75.03;;
66274;Laerm;58450;52.150;4.466;2023-07-13T11:06:34;54.90;48.08;67.21;;
66274;Laerm;58450;52.150;4.466;2023-07-13T11:09:30;54.50;47.92;66.24;;
66274;Laerm;58450;52.150;4.466;2023-07-13T11:12:00;55.21;49.07;73.21;;
66274;Laerm;58450;52.150;4.466;2023-07-13T11:14:35;55.98;49.34;71.58;;
66274;Laerm;58450;52.150;4.466;2023-07-13T11:17:38;56.57;46.80;74.43;;
66274;Laerm;58450;52.150;4.466;2023-07-13T11:20:36;55.38;46.69;74.53;;
66274;Laerm;58450;52.150;4.466;2023-07-13T11:23:31;54.93;47.00;70.18;;
66274;Laerm;58450;52.150;4.466;2023-07-13T11:25:59;54.31;47.76;71.96;;
66274;Laerm;58450;52.150;4.466;2023-07-13T11:28:31;55.76;45.41;75.32;;
66274;Laerm;58450;52.150;4.466;2023-07-13T11:31:14;53.51;44.60;71.18;;
66274;Laerm;58450;52.150;4.466;2023-07-13T11:33:58;54.94;49.00;69.81;;
66274;Laerm;58450;52.150;4.466;2023-07-13T11:36:36;54.83;48.11;72.25;;
66274;Laerm;58450;52.150;4.466;2023-07-13T11:39:18;55.27;48.29;67.83;;
66274;Laerm;58450;52.150;4.466;2023-07-13T11:41:52;52.29;46.38;65.63;;
66274;Laerm;58450;52.150;4.466;2023-07-13T11:44:24;57.13;48.61;68.20;;
66274;Laerm;58450;52.150;4.466;2023-07-13T11:46:55;57.19;47.17;73.38;;
66274;Laerm;58450;52.150;4.466;2023-07-13T11:49:31;53.62;47.24;64.50;;
66274;Laerm;58450;52.150;4.466;2023-07-13T11:52:00;54.97;47.31;76.89;;
66274;Laerm;58450;52.150;4.466;2023-07-13T11:54:32;53.77;47.15;72.53;;
66274;Laerm;58450;52.150;4.466;2023-07-13T11:57:10;57.83;49.32;74.07;;
66274;Laerm;58450;52.150;4.466;2023-07-13T11:59:43;56.42;50.53;66.25;;
66274;Laerm;58450;52.150;4.466;2023-07-13T12:02:25;55.96;47.76;70.18;;
66274;Laerm;58450;52.150;4.466;2023-07-13T12:04:56;55.61;48.37;70.73;;
66274;Laerm;58450;52.150;4.466;2023-07-13T12:07:24;57.80;48.48;78.33;;
66274;Laerm;58450;52.150;4.466;2023-07-13T12:10:02;57.06;48.11;71.36;;
66274;Laerm;58450;52.150;4.466;2023-07-13T12:12:30;54.52;45.47;71.28;;
66274;Laerm;58450;52.150;4.466;2023-07-13T12:14:58;55.48;48.32;68.67;;
66274;Laerm;58450;52.150;4.466;2023-07-13T12:17:28;53.58;47.89;64.73;;
66274;Laerm;58450;52.150;4.466;2023-07-13T12:19:56;56.76;47.72;70.15;;
66274;Laerm;58450;52.150;4.466;2023-07-13T12:22:25;53.18;46.96;65.61;;
66274;Laerm;58450;52.150;4.466;2023-07-13T12:24:53;55.71;47.91;72.84;;
66274;Laerm;58450;52.150;4.466;2023-07-13T12:27:26;53.98;47.89;67.77;;
66274;Laerm;58450;52.150;4.466;2023-07-13T12:30:00;51.08;45.09;65.79;;
66274;Laerm;58450;52.150;4.466;2023-07-13T12:32:29;57.43;44.32;77.77;;
66274;Laerm;58450;52.150;4.466;2023-07-13T12:35:14;55.68;48.57;72.40;;
66274;Laerm;58450;52.150;4.466;2023-07-13T12:37:42;56.54;47.08;71.23;;
66274;Laerm;58450;52.150;4.466;2023-07-13T12:40:15;56.60;48.17;71.57;;
66274;Laerm;58450;52.150;4.466;2023-07-13T12:42:46;57.22;47.08;69.64;;
66274;Laerm;58450;52.150;4.466;2023-07-13T12:45:20;58.61;47.44;74.50;;
66274;Laerm;58450;52.150;4.466;2023-07-13T12:47:54;55.93;47.14;72.79;;
66274;Laerm;58450;52.150;4.466;2023-07-13T12:50:34;53.43;48.13;68.75;;
66274;Laerm;58450;52.150;4.466;2023-07-13T12:53:09;57.94;49.58;70.50;;
66274;Laerm;58450;52.150;4.466;2023-07-13T12:55:43;56.27;49.12;67.55;;
66274;Laerm;58450;52.150;4.466;2023-07-13T12:58:22;54.45;48.17;69.95;;
66274;Laerm;58450;52.150;4.466;2023-07-13T13:00:56;53.22;47.56;64.04;;
66274;Laerm;58450;52.150;4.466;2023-07-13T13:03:30;54.71;47.17;69.92;;
66274;Laerm;58450;52.150;4.466;2023-07-13T13:06:01;53.43;46.21;72.96;;
66274;Laerm;58450;52.150;4.466;2023-07-13T13:08:32;55.03;47.32;67.17;;
66274;Laerm;58450;52.150;4.466;2023-07-13T13:11:00;56.20;49.42;76.69;;
66274;Laerm;58450;52.150;4.466;2023-07-13T13:13:30;53.25;46.03;67.34;;
66274;Laerm;58450;52.150;4.466;2023-07-13T13:16:02;54.01;46.43;66.21;;
66274;Laerm;58450;52.150;4.466;2023-07-13T13:18:32;57.21;48.46;72.69;;
66274;Laerm;58450;52.150;4.466;2023-07-13T13:21:02;53.88;47.01;70.38;;
66274;Laerm;58450;52.150;4.466;2023-07-13T13:23:30;54.48;46.40;69.61;;
66274;Laerm;58450;52.150;4.466;2023-07-13T13:25:58;54.69;47.62;67.53;;
66274;Laerm;58450;52.150;4.466;2023-07-13T13:28:26;50.93;45.31;58.17;;
66274;Laerm;58450;52.150;4.466;2023-07-13T13:30:56;55.25;46.78;74.70;;
66274;Laerm;58450;52.150;4.466;2023-07-13T13:33:23;53.79;45.33;71.02;;
66274;Laerm;58450;52.150;4.466;2023-07-13T13:35:51;53.02;44.97;68.27;;
66274;Laerm;58450;52.150;4.466;2023-07-13T13:38:26;54.67;45.44;77.74;;
66274;Laerm;58450;52.150;4.466;2023-07-13T13:40:54;54.97;46.72;69.39;;
66274;Laerm;58450;52.150;4.466;2023-07-13T13:43:25;54.09;45.28;66.68;;
66274;Laerm;58450;52.150;4.466;2023-07-13T13:45:57;53.64;47.12;67.90;;
66274;Laerm;58450;52.150;4.466;2023-07-13T13:48:31;56.17;47.78;74.03;;
66274;Laerm;58450;52.150;4.466;2023-07-13T13:51:01;55.75;46.54;75.10;;
66274;Laerm;58450;52.150;4.466;2023-07-13T13:53:33;56.92;49.83;76.27;;
66274;Laerm;58450;52.150;4.466;2023-07-13T13:56:01;53.29;46.62;72.71;;
66274;Laerm;58450;52.150;4.466;2023-07-13T13:58:29;51.94;43.54;68.44;;
66274;Laerm;58450;52.150;4.466;2023-07-13T14:00:58;51.73;44.83;68.66;;
66274;Laerm;58450;52.150;4.466;2023-07-13T14:03:27;53.90;47.94;64.02;;
66274;Laerm;58450;52.150;4.466;2023-07-13T14:05:55;52.12;44.75;72.67;;